Topel, Izmit Topel Airport (LTBQ)

NameIzmit Topel Airport
CityTopel
CountryTurkey
ICAOLTBQ
IATAKCO
Altitude55 m
CoordinatesGoogle Map
Live Air TrafficLiveATC.net
METARLTBQ 251650Z 30003KT CAVOK 08/03 Q1007 NOSIG RMK RWY09 00000KT
2020-04-25 16:50:00 Wind: West-Northwest (300°) 1.54 m/s - Visibility: > 10000 m - Weather: CAVOK - Temperature: 8 °C - Dew point: 3 °C - Humidity: 71% - Pressure: 1007 hPa
Statistics

The table below shows the detailed information of all flights to/from Topel, Izmit Topel Airport (LTBQ).